»·PEaware :: N5413E L52-L88

N5413E :: L52-L88

FLIGHT INFORMATION

Flight Status: Arrived
Operator: Privately registered:
United States
More flights under this callsign
Pilot: Rob F. (20595)
Aircraft: CESSNA 172 SKYHAWK
(C172)
More flights by this aircraft type
Origin: L52 Oceano Co
United States
Destination: L88 New Cuyama
United States
More flights between these airports :: More routes between these airports
Route: FLW
File this flight plan on PilotEdge
Remarks: For CAT 1 Rating
Altitude:
(Current/Filed)
5,500ft
Speed:
(Current/Filed)
110kts
Departed: 28-Sep-18 02:25 PM
Arrived: 28-Sep-18 02:55 PM
Distance/Time
Traveled:
47nm/0:30
Distance/Time
To Go:
Arrived

Flight Plot

Page will automatically refresh every two minutes.


Map Options




Map Legend


Flown Route
Filed Route
Departure Airport
Arrival Airport
Navaid (VOR, NDB)
Fix

Horizontal Profiles

Position Reports

Time Latitude Longitude Heading Altitude Ground
Speed
28-Sep-18 14:17 35.103382 -120.624531 214 17ft 0kts
28-Sep-18 14:18 35.103382 -120.624531 214 17ft 0kts
28-Sep-18 14:19 35.103382 -120.624531 214 17ft 0kts
28-Sep-18 14:20 35.103382 -120.624531 214 17ft 0kts
28-Sep-18 14:21 35.103382 -120.624531 214 17ft 0kts
28-Sep-18 14:22 35.103382 -120.624531 214 17ft 0kts
28-Sep-18 14:23 35.103382 -120.624531 214 17ft 0kts
28-Sep-18 14:24 35.103382 -120.624531 214 17ft 0kts
28-Sep-18 14:25 35.103379 -120.624534 214 17ft 0kts
28-Sep-18 14:26 35.103376 -120.624536 213 17ft 0kts
28-Sep-18 14:27 35.102304 -120.623778 121 17ft 49kts
28-Sep-18 14:28 35.092651 -120.600262 99 744ft 81kts
28-Sep-18 14:29 35.093352 -120.571718 85 1599ft 99kts
28-Sep-18 14:30 35.093464 -120.536333 87 2402ft 105kts
28-Sep-18 14:31 35.093523 -120.501967 89 3201ft 98kts
28-Sep-18 14:32 35.093584 -120.468679 90 3990ft 96kts
28-Sep-18 14:33 35.093636 -120.436704 92 4783ft 92kts
28-Sep-18 14:34 35.093672 -120.405722 94 5485ft 95kts
28-Sep-18 14:35 35.093656 -120.368886 93 5497ft 114kts
28-Sep-18 14:36 35.093680 -120.329522 93 5505ft 117kts
28-Sep-18 14:37 35.093695 -120.289758 93 5502ft 118kts
28-Sep-18 14:38 35.093696 -120.283048 93 5503ft 118kts
28-Sep-18 14:39 35.093697 -120.263807 93 5498ft 118kts
28-Sep-18 14:40 35.093694 -120.223723 93 5500ft 115kts
28-Sep-18 14:41 35.093674 -120.184631 93 5499ft 116kts
28-Sep-18 14:42 35.093637 -120.145190 93 5496ft 116kts
28-Sep-18 14:43 35.093583 -120.104897 93 5493ft 122kts
28-Sep-18 14:44 35.093534 -120.063523 93 5493ft 116kts
28-Sep-18 14:45 35.093467 -120.024708 93 5495ft 112kts
28-Sep-18 14:46 35.093387 -119.986787 94 5494ft 111kts
28-Sep-18 14:47 35.093272 -119.947966 93 5463ft 123kts
28-Sep-18 14:48 35.093162 -119.905404 93 5471ft 126kts
28-Sep-18 14:49 35.091585 -119.864006 126 5466ft 110kts
28-Sep-18 14:50 35.065752 -119.839747 137 5000ft 124kts
28-Sep-18 14:51 35.040859 -119.810788 136 4505ft 123kts
28-Sep-18 14:52 35.016121 -119.781529 136 4006ft 123kts
28-Sep-18 14:53 34.991347 -119.752224 136 3505ft 124kts
28-Sep-18 14:54 34.971714 -119.729002 135 3248ft 119kts
28-Sep-18 14:55 34.952148 -119.690226 112 2582ft 97kts
28-Sep-18 14:56 34.939824 -119.674216 211 2531ft 71kts
28-Sep-18 14:57 34.941739 -119.690018 299 2206ft 27kts
28-Sep-18 14:58 34.943723 -119.690977 108 2206ft 0kts
28-Sep-18 14:59 34.943723 -119.690977 108 2206ft 0kts
28-Sep-18 15:00 34.943723 -119.690977 108 2206ft 0kts
28-Sep-18 15:01 34.943723 -119.690977 108 2206ft 0kts
28-Sep-18 15:02 34.943723 -119.690977 108 2206ft 0kts
28-Sep-18 15:03 34.943723 -119.690977 108 2206ft 0kts
28-Sep-18 15:04 34.943723 -119.690977 108 2206ft 0kts
28-Sep-18 15:05 34.943723 -119.690977 108 2206ft 0kts
28-Sep-18 15:06 34.943723 -119.690977 108 2206ft 0kts
28-Sep-18 15:07 34.943723 -119.690977 108 2206ft 0kts
28-Sep-18 15:08 34.943723 -119.690977 108 2206ft 0kts
28-Sep-18 15:09 34.943723 -119.690977 108 2206ft 0kts
28-Sep-18 15:10 34.943723 -119.690977 108 2206ft 0kts
28-Sep-18 15:11 34.943723 -119.690977 108 2206ft 0kts

Navigation Log

Ident Type
Flight plan parsing failed, navigation log unavailable